Date,TemperatureHighF,TemperatureAvgF,TemperatureLowF,DewpointHighF,DewpointAvgF,DewpointLowF,HumidityHigh,HumidityAvg,HumidityLow,PressureMaxIn,PressureMinIn,WindSpeedMaxMPH,WindSpeedAvgMPH,GustSpeedMaxMPH,PrecipitationSumIn
2014-1-1,40.7,32.7,22.1,28.7,20.9,15.4,77,63,45,30.20,29.87,17,2,17,0.00
2014-1-2,43.4,31.1,21.2,23.6,17.9,14.0,76,59,39,30.15,29.96,13,1,13,0.00
2014-1-3,55.1,43.3,32.2,25.5,18.6,13.9,55,39,23,29.96,29.65,19,2,19,0.00
2014-1-4,40.7,20.7,8.3,23.0,12.5,0.8,77,71,45,29.98,29.70,8,1,10,0.00
2014-1-5,14.8,8.8,-0.9,7.9,1.1,-8.9,76,70,64,30.19,29.93,8,1,8,0.00
2014-1-6,35.8,15.3,-1.3,20.7,5.7,-9.1,77,66,44,30.12,29.99,15,1,15,0.18
2014-1-7,47.2,39.3,31.1,23.8,16.6,9.7,55,40,29,30.00,29.91,20,2,20,0.02
2014-1-8,37.1,29.4,21.8,21.5,17.1,12.2,69,60,49,30.02,29.90,5,0,5,0.00
2014-1-9,45.9,32.1,24.3,23.8,17.2,10.6,69,55,34,29.90,29.69,18,1,18,0.00
2014-1-10,36.2,30.6,26.6,14.8,10.5,4.3,57,43,36,29.85,29.62,29,6,29,0.00
2014-1-11,54.0,42.4,24.8,28.4,22.1,12.5,61,45,34,29.89,29.67,16,3,22,0.00
2014-1-12,49.5,37.4,28.4,28.9,14.9,4.7,63,40,32,29.90,29.59,29,5,29,0.00
2014-1-13,45.0,38.1,29.2,16.3,11.7,4.7,41,34,28,29.98,29.83,34,7,34,0.00
2014-1-14,37.8,30.2,23.4,22.5,18.7,15.1,77,63,40,30.26,29.97,15,2,15,0.00
2014-1-15,51.5,40.3,24.1,23.1,17.4,8.9,76,43,22,30.16,29.95,23,4,23,0.00
2014-1-16,45.0,36.9,27.7,19.2,12.3,4.3,54,38,21,30.17,30.02,21,2,21,0.00
2014-1-17,48.8,36.4,24.1,21.5,14.6,11.4,61,43,25,30.16,29.98,17,2,17,0.00
2014-1-18,53.5,40.5,31.0,18.9,12.3,6.3,43,33,16,30.14,30.05,11,2,11,0.00
2014-1-19,61.4,49.6,38.9,16.8,10.1,2.3,31,21,15,30.05,29.95,21,4,21,0.00
2014-1-20,48.6,38.9,27.5,19.1,12.9,4.6,52,36,17,30.27,29.97,14,2,14,0.00
2014-1-21,57.2,45.1,26.6,12.4,-0.2,-9.8,54,16,5,30.24,30.03,23,4,23,0.00
2014-1-22,39.1,31.6,24.1,18.1,11.2,2.9,75,44,30,30.16,30.00,15,1,15,0.00
2014-1-23,23.9,16.5,8.8,17.5,9.0,2.5,78,72,67,30.33,30.16,11,1,15,0.07
2014-1-24,53.5,40.1,21.2,19.8,14.4,3.3,72,37,21,30.16,30.08,15,2,15,0.00
2014-1-25,53.3,44.5,35.3,25.8,19.5,13.3,52,37,29,30.13,29.92,11,2,20,0.00
2014-1-26,55.6,39.8,16.9,22.4,15.8,9.1,76,41,20,30.07,29.78,12,3,14,0.00
2014-1-27,19.4,15.5,9.2,11.4,8.3,1.5,79,73,70,30.06,29.95,3,0,5,0.00
2014-1-28,27.9,15.9,4.7,15.0,5.6,-2.0,77,65,48,30.07,29.91,4,0,4,0.20
2014-1-29,48.1,37.1,21.2,29.0,19.1,8.3,63,49,36,29.92,29.49,19,3,19,0.00
2014-1-30,45.2,38.4,23.2,30.5,25.6,18.9,87,61,43,29.73,29.53,10,2,10,0.00
2014-1-31,27.7,21.8,16.2,22.3,16.4,11.3,84,79,73,29.77,29.65,5,0,5,0.00
2014-2-1,27.4,20.1,13.0,22.2,14.6,7.4,82,79,75,29.96,29.73,6,1,8,0.00
2014-2-2,27.2,16.7,4.3,18.0,9.6,-1.6,81,73,60,29.94,29.80,5,0,5,0.34
2014-2-3,34.0,22.2,11.5,20.4,12.1,5.6,79,66,42,29.83,29.75,5,1,5,0.01
2014-2-4,23.0,13.8,3.2,16.6,7.3,-3.2,80,75,69,30.02,29.79,9,1,9,0.00
2014-2-5,62.3,-0.6,-6.1,48.2,-10.4,-14.8,72,63,33,30.16,30.04,9,1,9,0.00
2014-2-6,2.9,-2.8,-7.6,-5.9,-10.5,-14.3,72,69,63,30.05,29.79,6,1,6,0.01
2014-2-7,42.5,23.8,-3.4,27.2,14.8,-10.5,82,69,52,29.81,29.72,8,1,8,0.06
2014-2-8,47.9,33.8,21.2,29.0,22.2,15.4,78,63,44,30.01,29.79,15,2,15,0.00
2014-2-9,24.5,19.6,15.1,18.9,14.5,10.6,83,80,77,29.99,29.88,6,1,6,0.00
2014-2-10,40.9,25.9,13.5,32.1,20.1,8.8,85,79,68,30.06,29.94,9,1,9,0.03
2014-2-11,45.9,32.7,20.9,23.6,18.0,14.5,83,57,33,30.05,29.89,13,2,17,0.00
2014-2-12,45.7,31.8,20.5,27.6,18.9,13.3,77,60,44,30.07,29.82,23,2,23,0.00
2014-2-13,53.8,46.8,41.4,31.1,26.7,19.2,55,46,36,29.91,29.78,19,4,19,0.00
2014-2-14,43.7,37.6,29.0,27.8,22.4,10.8,70,55,32,30.02,29.82,12,2,14,0.00
2014-2-15,53.1,42.0,30.4,33.0,28.9,25.0,81,62,36,30.07,29.78,23,4,23,0.00
2014-2-16,58.1,42.5,30.4,34.3,27.9,13.2,82,59,31,30.03,29.75,21,3,21,0.04
2014-2-17,55.8,44.5,31.3,16.0,9.5,4.9,43,25,16,30.07,29.74,28,6,28,0.00
2014-2-18,55.1,47.2,32.8,21.0,12.2,4.1,56,26,15,30.01,29.76,25,4,25,0.00
2014-2-19,54.0,39.7,28.6,26.5,19.4,12.5,61,46,24,29.94,29.55,17,2,17,0.00
2014-2-20,33.3,28.9,23.4,17.6,2.3,-4.4,61,32,22,29.95,29.73,24,5,24,0.00
2014-2-21,43.2,36.7,29.2,15.4,10.5,6.5,44,34,25,29.88,29.78,29,5,29,0.00
2014-2-22,46.4,35.8,25.7,21.4,16.9,10.0,72,48,33,29.97,29.78,13,2,13,0.00
2014-2-23,34.9,28.5,24.5,26.5,21.9,17.0,84,76,69,29.98,29.91,8,1,8,0.00
2014-2-24,60.7,36.1,18.7,27.0,18.8,10.2,86,56,19,30.15,29.84,19,3,19,0.00
2014-2-25,29.2,18.1,10.1,17.4,9.2,2.9,76,68,55,30.21,29.89,12,2,12,0.00
2014-2-26,40.3,25.4,6.7,23.8,15.0,-0.2,80,65,47,30.13,29.89,8,1,8,0.05
2014-2-27,54.7,41.4,26.1,31.3,25.0,18.0,72,54,36,29.89,29.63,8,1,8,0.00
2014-2-28,54.0,37.2,25.2,34.0,25.3,20.4,84,65,31,29.86,29.64,21,2,21,0.00
2014-3-1,25.2,15.8,5.4,21.1,10.4,-0.2,87,79,71,29.96,29.76,9,1,9,0.00
2014-3-2,26.3,15.2,4.5,21.6,9.2,-0.9,83,77,71,30.05,29.93,5,0,5,0.06
2014-3-3,54.0,40.2,25.4,37.2,25.0,19.6,84,59,28,30.02,29.93,14,2,14,0.01
2014-3-4,58.5,43.0,33.5,31.8,26.1,19.7,86,54,28,30.06,29.83,15,2,15,0.04
2014-3-5,45.7,37.5,28.4,39.3,30.0,24.5,87,75,58,30.10,30.01,8,1,8,0.10
2014-3-6,61.4,48.6,36.5,33.5,24.7,20.5,60,40,22,30.01,29.83,6,1,12,0.00
2014-3-7,48.2,37.5,32.0,31.3,28.1,23.0,85,71,38,30.14,29.83,8,1,8,0.15
2014-3-8,43.6,36.0,28.1,33.3,27.9,22.2,86,73,57,30.25,30.14,7,1,7,0.17
2014-3-9,66.6,51.0,33.5,29.1,17.4,7.8,64,30,12,30.19,30.05,13,2,13,0.00
2014-3-10,66.2,55.0,47.2,26.5,14.6,4.0,34,21,12,30.08,29.72,23,3,23,0.00
2014-3-11,54.0,37.9,24.1,27.8,18.5,9.9,68,48,18,30.25,29.71,21,4,21,0.00
2014-3-12,46.1,32.0,18.2,19.9,11.7,8.0,66,46,24,30.25,30.12,7,1,8,0.01
2014-3-13,56.7,42.9,27.2,20.1,12.7,8.2,46,31,18,30.13,29.84,20,2,20,0.00
2014-3-14,56.7,44.5,29.3,23.8,15.1,7.7,54,32,16,30.03,29.90,12,2,12,0.00
2014-3-15,46.3,39.9,28.6,22.6,16.0,11.0,54,38,29,30.24,29.88,25,4,25,0.00
2014-3-16,58.0,41.7,25.0,30.2,18.2,10.4,72,43,17,30.25,29.97,14,2,14,0.00
2014-3-17,64.3,48.3,35.3,28.6,17.5,6.7,54,31,16,29.97,29.48,20,3,20,0.00
2014-3-18,38.9,34.2,28.4,21.9,12.8,4.6,65,42,28,30.05,29.50,16,4,19,0.00
2014-3-19,51.1,34.0,21.4,17.1,11.2,3.6,65,44,16,30.05,29.97,11,1,11,0.00
2014-3-20,62.1,46.8,32.6,12.8,7.6,3.1,42,22,13,29.98,29.85,16,2,16,0.00
2014-3-21,43.9,37.4,28.8,20.9,17.3,5.2,66,45,24,30.10,29.88,10,2,10,0.00
2014-3-22,34.9,26.5,22.3,22.2,19.2,15.8,83,74,48,30.24,30.02,11,3,11,0.00
2014-3-23,52.4,35.4,17.3,32.9,18.7,11.5,84,56,22,30.22,29.94,20,2,22,0.10
2014-3-24,36.4,31.0,27.0,23.9,20.1,16.6,72,64,53,30.20,30.10,7,1,7,0.00
2014-3-25,48.8,36.9,26.8,30.8,24.4,18.7,77,62,46,30.21,29.80,6,1,6,0.00
2014-3-26,66.6,50.0,36.0,28.6,23.2,17.3,54,37,21,29.80,29.47,15,2,15,0.00
2014-3-27,54.0,43.9,35.6,34.8,23.0,9.7,76,48,19,29.89,29.51,20,3,20,0.00
2014-3-28,51.5,40.6,32.6,26.6,14.4,10.0,70,35,22,30.13,29.85,15,4,18,0.00
2014-3-29,61.9,44.5,30.6,21.8,15.7,10.6,46,33,18,30.13,29.94,10,1,10,0.06
2014-3-30,66.8,50.2,37.4,33.2,20.7,13.3,68,33,16,29.95,29.53,14,2,14,0.04
2014-3-31,49.0,42.6,33.1,20.7,15.7,10.3,57,35,22,30.02,29.55,18,3,18,0.00
2014-4-1,55.1,40.7,26.3,30.2,23.1,16.9,70,51,28,30.00,29.72,9,1,9,0.00
2014-4-2,48.2,36.6,28.1,31.4,27.2,22.9,87,70,50,29.83,29.71,6,2,9,0.00
2014-4-3,47.7,36.4,27.9,35.7,27.9,22.2,88,72,48,30.07,29.81,6,1,8,0.34
2014-4-4,52.0,36.4,22.7,32.9,23.7,18.8,89,63,32,30.07,29.91,11,1,11,0.00
2014-4-5,53.3,43.0,34.2,29.6,24.9,19.7,69,50,31,29.95,29.87,8,1,8,0.00
2014-4-6,54.5,42.6,30.6,28.7,22.4,14.0,71,48,22,30.00,29.87,12,2,12,0.00
2014-4-7,52.2,41.7,34.2,24.8,19.4,12.2,58,42,22,30.18,29.98,15,2,15,0.00
2014-4-8,65.3,50.5,31.7,36.4,23.6,17.6,64,38,19,30.18,30.10,10,2,10,0.00
2014-4-9,73.8,60.3,49.3,31.1,23.0,18.3,30,24,16,30.10,29.91,13,2,13,0.00
2014-4-10,61.6,51.2,37.6,40.1,31.5,18.7,71,48,28,30.07,29.94,8,1,8,0.00
2014-4-11,71.3,54.4,37.1,39.2,26.9,19.5,64,38,18,30.07,29.87,9,1,9,0.00
2014-4-12,66.4,54.3,45.2,36.3,28.7,20.7,62,38,25,29.87,29.73,11,1,11,0.01
2014-4-13,47.2,30.2,18.9,36.9,25.2,14.2,89,82,64,30.17,29.83,7,0,7,0.16
2014-4-14,38.7,26.9,12.8,25.6,18.2,8.3,85,71,52,30.20,30.06,5,0,7,0.25
2014-4-15,61.6,46.1,24.8,28.2,21.5,17.1,82,41,21,30.06,29.71,12,2,12,0.00
2014-4-16,54.2,45.0,35.6,28.0,21.7,11.1,64,41,23,30.07,29.72,14,2,14,0.00
2014-4-17,58.7,43.8,28.1,34.4,27.9,21.8,81,55,34,30.08,30.00,8,1,8,0.00
2014-4-18,76.3,57.6,38.0,39.6,29.3,25.3,63,38,17,30.02,29.90,10,1,10,0.00
2014-4-19,64.3,53.5,46.4,42.6,34.9,25.8,72,50,37,30.11,29.95,7,1,7,0.00
2014-4-20,67.9,54.7,40.7,46.6,36.8,29.6,79,53,32,30.14,30.04,9,1,9,0.01
2014-4-21,63.2,52.4,39.8,37.6,33.6,29.1,69,50,36,30.27,30.13,11,1,11,0.00
2014-4-22,75.1,56.9,42.1,43.0,35.7,31.3,69,48,27,30.13,29.73,8,1,8,0.00
2014-4-23,69.1,54.9,41.0,35.4,29.9,23.5,76,41,23,29.94,29.66,14,2,14,0.00
2014-4-24,61.9,46.9,29.3,34.8,26.2,17.6,79,48,25,30.00,29.90,11,1,11,0.00
2014-4-25,70.2,53.6,36.7,33.3,27.1,20.4,58,38,21,29.96,29.71,8,1,8,0.00
2014-4-26,69.5,56.3,42.1,35.8,27.9,21.2,49,35,23,29.71,29.44,9,1,9,0.00
2014-4-27,51.8,47.6,41.6,29.3,22.0,18.5,42,36,31,29.69,29.40,17,3,17,0.00
2014-4-28,53.3,43.6,36.9,21.8,15.1,6.5,44,32,17,30.00,29.68,16,3,16,0.00
2014-4-29,50.6,43.7,36.5,24.8,17.1,11.7,56,35,25,30.23,30.00,20,4,20,0.00
2014-4-30,49.7,42.5,33.7,20.3,16.9,12.3,46,36,27,30.25,30.17,18,4,18,0.00
2014-5-1,58.9,46.0,29.0,23.2,12.4,2.8,53,29,12,30.25,30.08,18,3,18,0.00
2014-5-2,74.5,58.0,36.4,33.9,25.1,14.3,50,30,18,30.13,29.98,9,1,9,0.00
2014-5-3,80.1,63.7,47.9,37.9,25.4,17.7,40,25,11,30.04,29.95,12,1,12,0.00
2014-5-4,80.6,66.2,52.7,35.5,20.7,13.1,37,19,8,29.97,29.86,13,2,13,0.00
2014-5-5,76.3,61.6,48.6,36.5,21.7,11.1,37,22,15,29.97,29.82,8,1,8,0.00
2014-5-6,74.9,60.1,49.0,40.6,27.6,13.8,41,29,21,29.82,29.69,8,1,8,0.00
2014-5-7,58.0,48.7,41.8,45.9,37.8,23.9,85,68,36,29.85,29.70,7,1,7,0.25
2014-5-8,49.9,41.3,36.7,41.7,36.2,33.1,89,83,65,29.98,29.85,6,1,6,0.16
2014-5-9,61.2,45.6,32.2,42.9,36.2,29.7,91,72,40,29.96,29.84,9,1,9,0.01
2014-5-10,66.1,49.5,36.4,43.8,37.1,29.2,87,65,32,29.93,29.83,6,1,8,0.09
2014-5-11,46.3,36.2,32.0,42.0,32.9,29.0,92,88,78,30.08,29.81,8,1,8,1.01
2014-5-12,43.0,34.3,27.2,29.1,25.8,20.9,90,72,49,30.33,30.07,11,2,12,0.28
2014-5-13,51.1,38.5,25.9,31.7,23.4,15.0,79,57,32,30.38,30.31,11,1,11,0.00
2014-5-14,59.0,45.4,31.9,35.3,26.7,20.1,65,49,27,30.37,30.25,8,1,8,0.00
2014-5-15,60.5,47.2,34.2,42.6,35.0,27.2,78,64,47,30.28,30.11,8,1,8,0.02
2014-5-16,62.5,49.6,39.8,46.3,40.0,32.9,90,71,42,30.15,30.03,10,1,10,0.11
2014-5-17,65.5,52.2,41.0,51.1,44.6,38.3,92,76,55,30.12,30.01,7,1,7,0.02
2014-5-18,79.6,61.8,42.7,53.2,41.7,26.9,89,53,25,30.01,29.77,13,1,13,0.00
2014-5-19,76.9,63.3,48.8,46.2,36.7,24.9,54,38,28,30.00,29.79,9,2,9,0.00
2014-5-20,71.1,62.9,49.0,50.4,47.1,40.1,86,58,45,30.05,29.97,8,1,8,0.05
2014-5-21,68.4,56.4,49.9,58.6,51.3,45.8,92,84,62,30.21,30.04,6,1,8,0.04
2014-5-22,69.3,56.2,48.6,59.7,51.6,46.2,93,85,70,30.20,30.14,8,1,8,0.02
2014-5-23,68.0,54.5,44.3,58.0,49.5,41.6,92,84,67,30.19,30.06,8,1,8,0.62
2014-5-24,70.7,56.3,46.3,62.2,52.6,44.4,94,88,70,30.11,30.00,7,1,7,0.57
2014-5-25,70.9,53.2,44.5,60.3,49.3,42.0,94,87,63,30.10,29.99,12,2,12,0.27
2014-5-26,67.9,54.8,44.3,60.7,50.2,41.9,94,85,67,30.12,30.08,8,1,8,0.03
2014-5-27,79.6,61.7,46.1,58.2,49.3,42.8,90,66,41,30.20,30.08,9,1,9,0.00
2014-5-28,86.6,63.2,48.1,56.3,49.0,41.9,81,63,30,30.18,30.08,8,1,8,0.00
2014-5-29,83.2,64.2,49.7,59.4,49.6,41.1,74,60,38,30.12,30.05,8,1,8,0.00
2014-5-30,69.8,60.6,52.6,61.1,53.3,46.0,93,78,58,30.18,30.08,6,1,6,0.36
2014-5-31,75.2,59.0,48.1,65.6,54.7,45.9,95,86,63,30.18,29.99,7,1,7,0.01
2014-6-1,75.8,60.7,49.7,59.0,50.6,44.5,90,71,40,30.13,29.93,11,1,11,0.00
2014-6-2,76.3,61.2,48.6,59.3,52.1,44.3,88,73,51,30.15,30.04,7,1,7,0.00
2014-6-3,87.5,65.3,48.2,54.4,45.7,37.3,84,54,25,30.04,29.89,14,2,14,0.00
2014-6-4,80.5,61.8,47.3,55.6,48.3,40.8,79,63,39,30.07,29.94,10,1,10,0.00
2014-6-5,78.1,60.6,46.8,57.2,48.4,41.1,82,65,43,30.10,30.03,8,1,8,0.00
2014-6-6,79.6,61.5,47.5,56.4,48.3,40.3,86,64,32,30.13,29.94,11,2,11,0.00
2014-6-7,61.0,55.4,51.5,57.8,51.6,45.2,92,87,75,30.14,30.09,5,1,5,0.22
2014-6-8,63.7,53.1,46.4,59.0,50.4,44.4,94,91,72,30.15,29.93,10,1,10,0.11
2014-6-9,69.3,49.6,36.4,53.9,44.1,34.2,95,83,55,30.16,30.06,8,1,8,0.00
2014-6-10,77.0,58.3,42.3,58.4,47.8,38.7,89,70,43,30.07,29.94,12,1,12,0.01
2014-6-11,72.4,59.2,50.0,53.7,48.3,42.0,89,68,41,30.15,29.93,11,1,11,0.02
2014-6-12,70.9,57.4,50.0,62.8,53.8,47.4,93,88,71,30.20,30.08,5,1,5,0.15
2014-6-13,81.9,62.1,48.2,58.2,49.4,41.0,93,68,30,30.08,29.80,8,2,8,0.00
2014-6-14,70.6,56.9,44.3,52.0,44.8,38.3,83,65,45,29.96,29.77,10,1,10,0.13
2014-6-15,101.7,56.9,40.5,50.3,42.7,33.5,89,64,12,30.01,29.88,13,1,13,0.00
2014-6-16,88.2,62.4,44.3,51.4,40.7,30.2,73,48,21,29.88,29.80,9,1,9,0.00
2014-6-17,107.6,64.0,47.9,55.4,42.4,31.4,66,49,16,29.91,29.80,10,1,10,0.00
2014-6-18,83.9,58.6,48.6,57.4,45.7,33.8,92,65,32,30.06,29.83,8,2,8,0.00
2014-6-19,105.5,63.8,43.0,53.9,45.3,25.6,95,60,13,30.18,30.06,15,2,15,0.00
2014-6-20,94.7,65.1,46.8,47.0,42.3,35.7,68,46,18,30.17,30.06,5,1,5,0.00
2014-6-21,80.5,69.6,55.1,53.2,45.8,36.7,54,43,28,30.09,29.99,11,1,11,0.00
2014-6-22,75.6,65.6,58.3,53.2,45.4,37.0,62,49,35,30.16,30.03,11,1,11,0.00
2014-6-23,75.1,62.5,51.3,55.3,50.0,43.5,77,64,48,30.21,30.10,7,1,7,0.00
2014-6-24,77.0,63.8,55.4,60.7,54.2,49.0,90,72,49,30.20,30.10,8,1,8,0.00
2014-6-25,76.5,64.8,55.3,63.5,56.9,51.5,92,77,51,30.15,29.98,5,1,5,0.00
2014-6-26,83.2,69.8,54.0,56.7,51.1,40.9,82,54,34,30.07,29.79,8,1,8,0.05
2014-6-27,74.3,61.7,52.9,59.0,51.3,42.3,92,71,45,29.94,29.83,10,1,10,0.43
2014-6-28,78.1,62.9,49.7,49.8,45.4,36.9,90,56,34,30.04,29.91,15,2,15,0.00
2014-6-29,81.7,67.8,54.2,53.6,45.2,38.0,57,45,29,30.07,29.99,9,1,9,0.00
2014-6-30,82.3,69.4,58.7,51.7,46.4,36.9,58,45,33,30.19,29.99,8,1,12,0.00
2014-7-1,74.9,63.4,51.8,49.8,44.5,37.8,66,51,40,30.31,30.19,10,2,10,0.00
2014-7-2,76.5,66.0,56.7,54.1,49.2,43.7,65,55,44,30.31,30.18,7,1,7,0.00
2014-7-3,81.0,68.1,56.0,57.9,50.8,44.8,73,55,41,30.20,30.14,6,1,8,0.00
2014-7-4,85.7,71.4,58.7,56.0,49.5,42.8,79,48,32,30.27,30.15,8,2,8,0.04
2014-7-5,84.2,69.6,56.5,56.3,50.4,44.6,70,52,32,30.22,30.17,5,1,5,0.01
2014-7-6,87.5,74.4,60.3,53.0,46.8,39.2,47,38,29,30.21,30.15,6,1,6,0.00
2014-7-7,93.8,74.2,59.9,61.2,47.3,36.4,89,44,16,30.27,30.04,12,2,12,0.33
2014-7-8,74.5,65.1,58.5,63.6,59.1,55.6,92,81,66,30.28,30.18,8,1,8,0.00
2014-7-9,76.5,66.7,56.9,66.3,58.1,50.0,88,75,54,30.19,30.05,8,1,8,0.03
2014-7-10,85.7,72.3,58.1,57.0,52.6,46.5,70,51,34,30.11,30.02,7,1,7,0.00
2014-7-11,82.1,69.8,62.3,63.0,58.1,52.1,90,68,44,30.26,30.11,7,1,7,0.03
2014-7-12,74.9,64.6,60.1,64.5,60.6,58.1,94,87,66,30.33,30.18,8,1,8,0.22
2014-7-13,76.9,63.3,54.9,67.4,60.1,53.4,95,90,64,30.33,30.24,8,1,8,0.25
2014-7-14,74.9,63.7,55.3,62.6,58.1,53.8,96,83,64,30.34,30.25,8,1,8,0.03
2014-7-15,68.6,60.9,54.7,63.5,58.3,52.7,94,91,80,30.32,30.02,6,1,6,0.23
2014-7-16,67.3,58.7,53.8,63.9,57.0,52.4,96,94,86,30.14,30.06,8,1,8,0.57
2014-7-17,71.1,60.7,53.5,64.3,57.5,51.8,96,90,76,30.15,30.09,8,1,8,0.01
2014-7-18,77.8,64.3,53.5,61.3,55.7,50.1,92,75,48,30.10,30.03,8,1,8,0.01
2014-7-19,85.7,69.5,56.3,56.8,51.1,42.7,77,55,23,30.11,30.03,11,1,11,0.00
2014-7-20,84.6,69.1,59.8,61.3,50.7,41.5,81,54,33,30.15,30.05,8,1,8,0.04
2014-7-21,89.1,72.7,60.3,62.2,52.2,46.9,71,51,28,30.22,30.10,8,1,8,0.00
2014-7-22,84.1,71.6,61.2,59.8,53.0,44.4,60,52,41,30.33,30.21,9,1,9,0.00
2014-7-23,78.5,70.2,60.8,63.9,56.7,48.6,77,63,46,30.35,30.20,8,1,8,0.00
2014-7-24,88.9,74.8,63.4,58.4,52.9,45.8,64,48,29,30.20,30.07,9,1,9,0.00
2014-7-25,86.0,75.3,68.2,61.1,52.3,45.1,69,45,35,30.14,30.08,8,2,8,0.01
2014-7-26,80.3,71.5,59.2,61.7,53.8,46.2,83,55,39,30.26,30.09,13,2,13,0.06
2014-7-27,75.2,65.1,55.8,64.6,57.9,49.7,89,78,67,30.36,30.22,11,1,11,0.01
2014-7-28,75.8,66.0,57.4,63.6,59.1,54.4,92,79,61,30.34,30.22,8,1,8,0.01
2014-7-29,75.6,64.6,56.9,62.9,57.6,54.3,92,79,60,30.28,30.19,11,1,11,0.12
2014-7-30,61.7,57.3,54.7,60.1,55.6,53.3,95,94,92,30.32,30.24,5,0,5,1.50
2014-7-31,93.8,65.0,53.3,72.2,56.4,48.2,96,78,30,30.29,30.23,7,1,7,0.03
2014-8-1,96.1,64.6,50.2,66.3,52.4,45.5,85,68,25,30.27,30.23,8,1,8,0.00
2014-8-2,103.5,66.4,49.3,66.4,50.5,42.7,81,61,22,30.28,30.21,8,1,8,0.00
2014-8-3,76.7,65.9,55.4,58.6,52.7,47.1,76,63,41,30.25,30.17,6,1,6,0.00
2014-8-4,77.8,67.9,58.3,59.0,53.1,48.2,74,60,46,30.19,30.15,8,1,8,0.00
2014-8-5,76.7,66.2,59.4,60.8,54.5,49.1,84,67,45,30.19,30.12,7,1,7,0.01
2014-8-6,76.9,67.0,56.7,59.7,54.9,50.2,84,66,46,30.21,30.11,8,1,8,0.00
2014-8-7,75.2,65.2,57.6,59.5,54.2,49.8,81,68,49,30.21,30.09,7,1,7,0.00
2014-8-8,75.6,63.8,54.2,58.7,52.7,48.0,81,68,45,30.17,30.09,9,1,9,0.01
2014-8-9,76.5,64.8,57.8,59.4,52.7,46.9,86,66,40,30.27,30.11,8,1,8,0.02
2014-8-10,70.7,62.2,54.0,58.1,53.9,50.4,88,75,55,30.35,30.26,8,1,8,0.00
2014-8-11,76.3,63.7,52.9,55.9,51.0,46.5,83,65,41,30.35,30.28,9,1,9,0.00
2014-8-12,80.1,66.9,55.6,56.8,49.6,44.8,71,55,35,30.30,30.19,7,1,7,0.00
2014-8-13,79.9,67.3,59.2,57.8,50.0,45.5,68,54,43,30.21,30.10,5,0,5,0.00
2014-8-14,78.8,67.6,60.1,65.3,56.4,49.4,93,70,45,30.15,30.08,8,1,8,0.22
2014-8-15,74.9,62.6,55.4,63.6,56.3,46.6,93,81,58,30.17,30.09,10,1,10,0.10
2014-8-16,77.8,68.9,61.6,56.4,50.2,44.9,65,52,37,30.20,30.13,7,1,7,0.00
2014-8-17,78.8,67.7,58.3,56.4,49.5,43.7,65,53,37,30.19,30.13,8,1,8,0.00
2014-8-18,78.8,67.6,58.3,54.6,48.7,42.9,65,52,34,30.13,30.05,8,1,8,0.00
2014-8-19,76.7,66.6,58.0,59.3,51.9,46.0,74,60,38,30.11,29.95,8,1,8,0.01
2014-8-20,79.9,68.4,60.3,56.1,52.5,47.6,73,58,33,30.07,29.95,8,1,8,0.00
2014-8-21,76.1,64.9,57.6,59.2,53.7,49.0,87,69,46,30.18,30.05,8,1,8,0.04
2014-8-22,70.9,61.7,58.0,60.5,56.8,52.8,93,84,67,30.18,30.06,5,0,5,0.13
2014-8-23,69.1,60.6,54.5,63.1,54.8,45.0,96,82,50,30.07,29.95,7,1,7,0.04
2014-8-24,74.7,60.4,50.6,49.6,45.7,40.6,79,60,37,30.12,30.02,7,1,7,0.02
2014-8-25,71.3,62.2,56.2,55.3,50.4,45.7,82,66,52,30.23,30.11,8,1,8,0.01
2014-8-26,70.6,60.9,54.0,60.0,53.8,49.6,86,78,66,30.24,30.16,8,1,8,0.03
2014-8-27,66.1,58.8,55.8,60.0,55.7,52.5,93,89,74,30.20,30.10,7,0,7,0.25
2014-8-28,61.7,55.7,51.5,57.3,53.4,49.3,95,92,83,30.18,30.11,5,0,5,0.09
2014-8-29,67.3,57.4,49.3,58.9,52.1,46.5,94,83,53,30.17,30.08,9,1,9,0.11
2014-8-30,74.0,59.4,50.0,60.1,51.8,46.7,91,78,42,30.15,29.96,11,1,11,0.02
2014-8-31,69.3,58.6,53.6,58.1,52.3,47.6,91,80,49,30.04,29.93,8,1,8,0.04
2014-9-1,69.3,57.2,48.6,54.4,49.9,43.5,94,78,46,30.16,30.00,8,1,8,0.01
2014-9-2,73.6,60.9,47.2,57.2,50.3,43.4,87,69,50,30.16,30.00,6,1,6,0.00
2014-9-3,82.4,68.2,53.8,50.2,44.4,37.0,68,45,23,30.00,29.89,10,2,10,0.00
2014-9-4,69.7,63.0,56.7,50.4,45.2,36.2,79,53,32,30.24,29.92,7,1,7,0.02
2014-9-5,56.3,52.4,48.6,53.7,50.0,46.2,94,92,81,30.33,30.24,5,0,5,0.33
2014-9-6,63.0,54.5,47.9,58.1,51.9,46.3,95,91,81,30.33,30.23,7,1,7,0.01
2014-9-7,70.2,59.1,49.3,59.6,50.6,44.9,92,75,51,30.23,30.07,5,1,5,0.00
2014-9-8,73.8,65.1,58.7,54.8,49.7,44.2,69,58,42,30.10,30.00,8,1,8,0.00
2014-9-9,67.9,60.1,54.7,58.9,53.1,48.3,93,79,62,30.04,29.92,8,0,8,0.22
2014-9-10,60.3,54.3,50.0,58.7,52.5,48.3,96,94,91,30.14,30.03,5,1,5,0.38
2014-9-11,52.2,45.9,34.6,49.9,44.2,32.9,96,94,92,30.40,30.09,6,2,6,0.31
2014-9-12,41.9,36.9,32.8,40.4,35.5,31.2,96,95,93,30.40,30.20,6,1,6,0.03
2014-9-13,61.2,47.1,34.6,54.3,43.8,32.9,97,89,63,30.20,30.10,5,1,5,0.01
2014-9-14,69.1,55.8,44.6,54.0,46.6,41.2,90,73,44,30.18,30.06,7,1,7,0.00
2014-9-15,62.6,54.0,47.3,52.4,47.8,43.6,88,80,68,30.31,30.18,6,1,6,0.00
2014-9-16,75.2,60.9,49.3,53.8,47.6,42.8,84,64,42,30.21,30.12,7,1,7,0.00
2014-9-17,75.2,61.8,53.3,53.7,47.0,41.2,75,60,38,30.13,30.05,7,1,7,0.01
2014-9-18,75.2,61.6,52.2,51.8,47.4,43.5,77,61,37,30.10,29.98,6,1,6,0.00
2014-9-19,76.1,64.2,55.8,53.2,47.3,41.2,65,55,41,30.12,29.99,8,1,8,0.00
2014-9-20,70.0,61.8,54.9,54.1,49.7,46.0,73,65,53,30.30,30.11,8,1,8,0.00
2014-9-21,66.8,60.1,55.4,53.2,48.8,44.1,76,66,59,30.36,30.25,5,1,7,0.00
2014-9-22,66.6,58.5,54.2,58.1,51.7,46.9,92,79,56,30.26,30.11,6,1,6,0.06
2014-9-23,72.5,61.4,54.2,53.1,48.9,44.5,79,65,44,30.20,30.12,8,1,8,0.00
2014-9-24,72.2,61.0,52.6,51.4,47.1,43.5,74,61,42,30.27,30.20,7,1,7,0.00
2014-9-25,74.3,61.8,52.6,52.8,47.5,42.9,73,60,43,30.25,30.12,8,1,8,0.00
2014-9-26,76.5,64.3,54.5,54.2,48.2,43.0,70,57,38,30.12,30.05,6,1,8,0.00
2014-9-27,74.9,63.6,55.8,50.5,45.8,40.8,69,53,36,30.06,29.99,8,1,8,0.00
2014-9-28,68.6,58.2,51.7,56.2,48.4,41.1,90,71,55,30.10,30.03,9,1,9,0.01
2014-9-29,59.4,53.8,48.6,55.2,51.1,46.7,93,91,81,30.08,29.85,5,0,5,0.29
2014-9-30,56.5,48.9,42.7,48.7,44.4,40.8,95,85,66,29.92,29.84,6,1,6,0.01
2014-10-1,56.5,48.2,42.8,46.4,42.3,39.2,90,80,64,30.07,29.90,7,1,7,0.04
2014-10-2,54.7,45.0,37.6,43.7,37.1,30.1,94,76,46,30.21,30.05,13,1,13,0.02
2014-10-3,50.6,40.8,34.9,39.5,33.7,29.3,83,76,64,30.32,30.20,9,1,9,0.00
2014-10-4,64.1,50.0,38.0,42.8,36.3,32.2,83,62,38,30.20,30.04,11,1,11,0.01
2014-10-5,65.2,55.0,44.3,42.6,36.6,31.9,67,51,34,30.08,30.02,9,1,9,0.00
2014-10-6,70.2,56.8,43.4,42.1,36.7,31.3,74,50,29,30.08,29.95,10,2,10,0.00
2014-10-7,68.4,57.9,49.5,41.6,36.3,31.2,56,45,35,30.13,30.01,6,1,8,0.00
2014-10-8,67.9,56.6,48.6,45.4,39.1,34.0,62,52,39,30.12,30.04,6,0,6,0.00
2014-10-9,58.5,51.9,47.0,50.5,43.3,37.6,92,73,57,30.19,30.06,4,0,6,0.70
2014-10-10,52.9,48.9,45.4,51.5,46.8,43.2,95,93,91,30.22,30.13,3,0,3,0.01
2014-10-11,59.0,49.3,41.4,52.4,45.0,39.5,95,86,73,30.13,29.87,6,0,6,0.00
2014-10-12,51.5,47.6,39.4,41.5,37.2,29.7,78,67,54,30.10,29.76,12,1,13,0.00
2014-10-13,51.5,41.6,34.2,37.5,33.4,29.7,84,73,56,30.18,30.10,8,1,8,0.00
2014-10-14,62.3,47.2,36.9,41.1,34.6,29.5,76,63,39,30.16,30.11,5,0,5,0.00
2014-10-15,68.0,55.2,42.7,43.9,34.0,25.0,66,47,25,30.11,29.92,8,1,8,0.00
2014-10-16,61.7,53.7,47.0,40.1,34.5,28.4,64,49,38,30.12,29.92,5,1,7,0.00
2014-10-17,53.8,46.0,39.2,37.4,34.3,31.2,74,64,50,30.19,30.12,6,1,6,0.00
2014-10-18,58.5,47.7,38.9,45.5,37.4,31.8,77,68,58,30.18,30.07,5,0,5,0.00
2014-10-19,64.1,52.4,44.8,41.6,36.6,32.9,66,56,40,30.17,30.07,6,0,6,0.00
2014-10-20,65.0,52.4,43.7,44.4,38.1,32.9,68,59,44,30.17,30.05,5,0,5,0.00
2014-10-21,66.8,55.3,47.0,45.6,40.3,35.6,86,58,41,30.06,29.95,8,1,8,0.11
2014-10-22,57.4,49.1,44.3,48.2,42.9,38.0,91,79,62,30.15,29.99,8,0,8,0.01
2014-10-23,61.0,51.0,41.2,44.8,39.2,35.0,80,65,49,30.16,30.09,5,1,5,0.00
2014-10-24,65.9,56.3,50.0,41.6,35.4,26.4,57,46,34,30.20,30.12,5,1,5,0.00
2014-10-25,68.2,55.2,46.6,33.9,29.7,26.1,50,38,23,30.24,30.00,7,1,7,0.00
2014-10-26,69.1,58.5,49.7,40.3,33.8,28.0,53,40,28,30.01,29.82,10,1,10,0.00
2014-10-27,55.4,45.0,35.6,37.1,27.5,14.1,77,52,30,30.08,29.82,12,2,12,0.00
2014-10-28,49.3,40.3,34.9,29.7,24.9,19.6,61,54,45,30.17,30.08,6,1,6,0.00
2014-10-29,60.7,46.6,35.1,29.0,24.8,20.5,61,44,24,30.18,30.08,8,1,8,0.00
2014-10-30,53.6,45.0,38.5,33.0,27.6,23.8,61,51,41,30.35,30.18,7,1,7,0.00
2014-10-31,49.3,40.5,33.5,34.1,29.1,24.3,72,64,54,30.34,30.04,4,0,4,0.00
2014-11-1,59.4,47.1,38.3,41.9,33.8,28.6,69,60,48,30.04,29.85,4,0,4,0.00
2014-11-2,62.8,50.2,43.0,38.0,32.4,28.5,63,51,31,29.89,29.82,10,1,10,0.00
2014-11-3,47.2,38.3,32.9,39.6,35.1,30.3,91,89,63,30.19,29.85,4,0,5,0.17
2014-11-4,44.3,35.5,28.4,35.7,29.9,22.8,93,81,47,30.22,30.09,7,1,7,0.01
2014-11-5,53.6,43.7,36.9,35.7,30.9,25.7,74,61,47,30.35,30.09,7,1,7,0.00
2014-11-6,54.9,42.5,33.8,36.6,31.5,27.5,78,66,48,30.36,30.09,4,0,4,0.00
2014-11-7,62.3,52.2,40.5,37.9,31.3,24.7,85,47,27,30.33,30.00,9,2,15,0.15
2014-11-8,49.3,41.3,34.7,45.2,36.0,26.7,92,82,50,30.32,30.01,5,0,5,0.00
2014-11-9,58.7,48.9,42.1,34.1,29.8,24.5,58,48,34,30.01,29.61,11,1,11,0.00
2014-11-10,53.1,37.8,20.7,34.3,24.6,15.2,83,62,39,30.06,29.55,13,1,13,0.00
2014-11-11,22.1,17.8,11.3,18.1,12.7,5.2,86,80,76,30.21,30.04,5,1,5,0.00
2014-11-12,20.9,17.8,11.2,17.0,12.9,4.4,85,81,74,30.29,30.21,5,0,5,0.00
2014-11-13,20.0,17.0,14.0,15.8,12.9,9.5,86,84,82,30.26,29.93,3,0,4,0.01
2014-11-14,32.2,24.6,17.6,30.2,21.3,13.5,92,87,83,29.94,29.77,4,1,6,0.17
2014-11-15,27.5,25.8,23.6,25.0,23.0,20.5,90,89,88,30.07,29.74,5,0,5,0.00
2014-11-16,24.7,22.3,19.1,21.9,19.2,15.6,90,88,87,30.09,29.98,2,0,2,0.07
2014-11-17,26.1,23.4,20.5,23.9,20.7,17.2,91,89,87,30.10,30.05,7,1,7,0.04
2014-11-18,32.2,28.2,24.1,30.4,25.8,21.1,93,91,88,30.09,29.96,14,3,14,0.00
2014-11-19,33.3,30.7,28.3,29.9,27.3,25.0,89,87,85,30.08,29.99,12,1,12,0.00
2014-11-20,34.7,30.7,26.5,32.3,27.9,23.0,92,89,87,30.01,29.95,4,0,4,0.00
2014-11-21,38.5,33.8,31.3,32.7,29.6,27.4,89,84,78,29.97,29.92,8,1,8,0.00
2014-11-22,39.4,35.5,31.0,34.6,30.2,25.4,87,81,76,29.95,29.61,7,1,7,0.00
2014-11-23,37.8,32.5,27.0,32.7,23.9,11.1,84,71,48,29.90,29.63,12,2,12,0.00
2014-11-24,35.8,29.4,22.1,22.2,15.7,11.2,69,57,44,30.15,29.82,12,3,12,0.00
2014-11-25,42.7,34.3,21.4,27.5,20.5,12.2,77,58,43,30.10,29.82,19,3,19,0.00
2014-11-26,35.8,29.9,27.2,30.2,25.4,23.4,88,83,77,30.20,30.07,17,1,17,0.07
2014-11-27,52.6,41.0,28.6,35.6,30.0,25.2,88,66,43,30.19,30.03,18,2,18,0.00
2014-11-28,57.4,47.3,39.1,28.0,24.6,16.9,59,42,27,30.03,29.78,13,2,13,0.00
2014-11-29,58.0,52.2,48.2,22.0,17.7,9.6,33,26,18,29.78,29.68,17,3,17,0.00
2014-11-30,50.0,34.4,20.5,21.4,16.1,12.9,75,52,26,30.25,29.73,13,2,13,0.00
2014-12-1,40.3,24.4,18.7,25.8,17.5,11.9,79,75,53,30.25,30.02,16,1,16,0.06
2014-12-2,52.7,44.5,33.5,26.1,21.4,16.5,58,40,27,30.10,29.91,16,3,16,0.00
2014-12-3,35.8,32.1,28.8,23.9,21.6,19.4,70,65,57,30.12,29.94,6,1,6,0.00
2014-12-4,47.5,40.1,33.8,31.3,26.7,22.7,64,59,51,30.02,29.93,4,0,4,0.00
2014-12-5,49.7,40.6,33.8,30.6,26.2,22.9,64,56,47,30.30,30.00,7,1,7,0.00
2014-12-6,44.3,36.6,33.3,29.8,25.6,22.9,68,64,56,30.29,30.16,5,0,5,0.00
2014-12-7,51.3,42.4,34.2,27.4,23.7,19.2,58,48,35,30.26,30.15,13,1,13,0.00
2014-12-8,47.3,36.4,31.5,26.8,21.0,16.8,61,54,41,30.28,30.23,3,0,3,0.00
2014-12-9,48.1,36.3,29.9,25.0,18.2,12.2,59,48,34,30.26,30.12,4,0,4,0.00
2014-12-10,52.4,39.7,33.5,21.2,15.7,11.7,44,38,26,30.15,30.08,5,0,5,0.00
2014-12-11,52.0,39.0,32.4,26.9,19.6,14.4,53,46,36,30.09,30.01,4,0,4,0.00
2014-12-12,53.1,41.7,35.5,25.7,19.5,15.2,47,41,31,30.08,29.97,2,0,3,0.00
2014-12-13,52.9,44.0,35.6,29.4,21.6,17.8,50,41,36,29.97,29.76,2,0,3,0.00
2014-12-14,38.2,34.5,32.2,30.2,26.1,18.6,89,73,50,29.87,29.74,5,0,5,0.03
2014-12-15,33.5,30.3,24.7,30.8,27.4,21.3,90,89,85,30.13,29.86,4,0,4,0.03
2014-12-16,32.0,25.4,20.9,28.4,22.0,17.6,89,87,84,30.13,29.99,3,0,3,0.02
2014-12-17,37.3,30.8,25.2,31.5,26.8,21.7,89,85,77,29.99,29.89,3,0,3,0.01
2014-12-18,35.6,29.0,24.3,29.3,25.0,21.2,89,85,75,30.06,29.96,4,0,4,0.00
2014-12-19,35.8,28.4,23.4,26.7,22.2,18.8,88,78,63,30.05,29.96,6,0,6,0.01
2014-12-20,40.0,32.5,27.0,27.1,23.5,19.0,74,69,53,29.99,29.87,7,0,7,0.00
2014-12-21,45.0,35.9,28.3,34.1,27.2,21.3,90,71,52,29.87,29.56,14,2,14,0.10
2014-12-22,32.9,30.2,24.8,29.9,24.4,12.6,90,79,57,29.84,29.69,12,2,12,0.01
2014-12-23,31.1,25.9,17.6,16.8,12.8,9.6,73,58,42,30.06,29.83,9,2,11,0.00
2014-12-24,41.8,29.3,16.4,27.7,18.2,9.1,73,64,50,30.00,29.50,6,1,6,0.00
2014-12-25,36.9,31.3,25.6,28.5,23.7,20.3,86,74,62,29.83,29.43,7,1,7,0.00
2014-12-26,32.2,29.0,25.0,29.8,25.9,21.7,91,88,86,29.99,29.81,2,0,3,0.00
2014-12-27,29.0,22.3,19.6,25.9,18.9,16.2,88,86,84,30.04,29.91,3,0,3,0.00
2014-12-28,24.8,20.7,18.0,22.3,17.7,14.5,90,88,87,29.92,29.76,7,1,7,0.00
2014-12-29,19.3,16.9,10.3,16.5,13.6,6.0,89,87,83,30.23,29.87,6,0,6,0.00
2014-12-30,12.2,9.6,5.4,8.0,5.3,1.1,84,83,82,30.31,30.14,2,0,4,0.00
2014-12-31,18.4,13.3,8.8,15.3,9.6,4.4,89,85,82,30.14,29.97,4,0,4,0.00
2015-1-1,23.2,19.2,15.5,20.7,16.2,11.7,91,88,86,29.97,29.87,4,0,4,0.00
2015-1-2,29.3,24.7,22.5,27.5,22.2,19.7,93,90,89,29.95,29.73,4,0,4,0.00